Time;durP1;ratioP1;P1;durP2;ratioP2;P2;SDS_P1;SDS_P2;PMS_P1;PMS_P2;Temp;Humidity;BMP_temperature;BMP_pressure;BME280_temperature;BME280_humidity;BME280_pressure;Samples;Min_cycle;Max_cycle;Signal;HPM_P1;HPM_P2
2023/01/26 00:00:08;;;;;;;19.10;12.87;;;1.40;99.90;;;;;;4992785;28;20199;-30
2023/01/26 00:02:33;;;;;;;18.10;12.17;;;1.50;99.90;;;;;;4974712;28;20183;-30
2023/01/26 00:04:59;;;;;;;21.47;14.10;;;1.50;99.90;;;;;;4958518;28;20198;-30
2023/01/26 00:07:27;;;;;;;24.27;14.10;;;1.50;99.90;;;;;;4975742;28;20213;-29
2023/01/26 00:09:52;;;;;;;22.30;14.03;;;1.50;99.90;;;;;;4959037;28;20203;-30
2023/01/26 00:12:18;;;;;;;23.77;14.40;;;1.50;99.90;;;;;;4975708;28;20187;-30
2023/01/26 00:14:50;;;;;;;23.50;14.20;;;1.40;99.90;;;;;;4975915;28;20185;-29
2023/01/26 00:17:24;;;;;;;23.43;14.13;;;1.40;99.90;;;;;;4975568;28;20192;-31
2023/01/26 00:19:54;;;;;;;23.67;14.40;;;1.40;99.90;;;;;;4962699;28;20257;-31
2023/01/26 00:22:20;;;;;;;23.47;14.43;;;1.30;99.90;;;;;;4967089;28;20187;-30
2023/01/26 00:24:46;;;;;;;25.83;14.50;;;1.20;99.90;;;;;;4973631;28;20244;-31
2023/01/26 00:27:12;;;;;;;28.40;14.40;;;1.20;99.90;;;;;;4990792;28;20210;-31
2023/01/26 00:29:38;;;;;;;23.50;14.37;;;1.10;99.90;;;;;;4994549;28;20222;-31
2023/01/26 00:32:04;;;;;;;25.87;15.03;;;1.10;99.90;;;;;;5007638;23;20264;-39
2023/01/26 00:34:30;;;;;;;26.00;14.70;;;1.20;99.90;;;;;;5029204;28;20179;-42
2023/01/26 00:36:55;;;;;;;27.37;15.53;;;1.20;99.90;;;;;;5029138;28;20281;-40
2023/01/26 00:39:22;;;;;;;27.90;16.77;;;1.30;99.90;;;;;;5011425;28;20180;-39
2023/01/26 00:42:08;;;;;;;23.07;15.83;;;1.30;99.90;;;;;;4998141;28;20202;-39
2023/01/26 00:44:36;;;;;;;26.20;15.50;;;1.30;99.90;;;;;;4977771;28;20185;-39
2023/01/26 00:47:02;;;;;;;27.70;16.03;;;1.40;99.90;;;;;;4994183;28;20186;-40
2023/01/26 00:49:28;;;;;;;25.10;15.33;;;1.40;99.90;;;;;;4978576;28;20175;-41
2023/01/26 00:51:54;;;;;;;24.17;15.27;;;1.40;99.90;;;;;;5006193;28;20200;-40
2023/01/26 00:54:19;;;;;;;27.53;16.07;;;1.50;99.90;;;;;;4971413;28;20179;-39
2023/01/26 00:56:45;;;;;;;22.23;13.57;;;1.50;99.90;;;;;;4985467;28;20229;-38
2023/01/26 00:59:13;;;;;;;25.23;15.30;;;1.50;99.90;;;;;;4994364;28;20186;-39
2023/01/26 01:01:38;;;;;;;27.37;15.03;;;1.50;99.90;;;;;;5008925;28;20206;-39
2023/01/26 01:04:05;;;;;;;28.00;15.10;;;1.50;99.90;;;;;;4992749;28;20266;-39
2023/01/26 01:06:32;;;;;;;26.73;16.07;;;1.40;99.90;;;;;;4992994;28;20187;-39
2023/01/26 01:08:58;;;;;;;23.13;15.03;;;1.40;99.90;;;;;;4977184;28;20214;-39
2023/01/26 01:11:23;;;;;;;24.67;15.00;;;1.30;99.90;;;;;;4996513;28;20203;-38
2023/01/26 01:13:50;;;;;;;24.83;14.63;;;1.30;99.90;;;;;;4979702;28;20663;-40
2023/01/26 01:16:16;;;;;;;23.97;13.97;;;1.30;99.90;;;;;;4980066;28;20212;-41
2023/01/26 01:18:43;;;;;;;21.87;13.17;;;1.30;99.90;;;;;;4996246;28;20190;-40
2023/01/26 01:21:11;;;;;;;21.83;12.27;;;1.30;99.90;;;;;;4995946;28;20220;-39
2023/01/26 01:23:37;;;;;;;23.00;13.33;;;1.20;99.90;;;;;;5014162;28;20191;-39
2023/01/26 01:26:04;;;;;;;24.13;14.37;;;1.10;99.90;;;;;;4988190;28;20182;-38
2023/01/26 01:28:30;;;;;;;23.73;14.03;;;1.10;99.90;;;;;;4995782;28;20209;-38
2023/01/26 01:30:56;;;;;;;22.50;13.93;;;1.20;99.90;;;;;;5011741;28;20225;-41
2023/01/26 01:33:23;;;;;;;22.50;13.43;;;1.20;99.90;;;;;;5013778;28;20168;-39
2023/01/26 01:36:00;;;;;;;19.97;12.67;;;1.30;99.90;;;;;;5013509;28;20274;-40
2023/01/26 01:38:27;;;;;;;21.43;13.23;;;1.30;99.90;;;;;;5015009;28;20308;-39
2023/01/26 01:40:55;;;;;;;22.20;12.97;;;1.30;99.90;;;;;;4980692;28;20203;-39
2023/01/26 01:43:23;;;;;;;25.97;14.67;;;1.40;99.90;;;;;;4997924;28;20191;-39
2023/01/26 01:45:50;;;;;;;26.83;15.60;;;1.40;99.90;;;;;;4979464;28;20183;-40
2023/01/26 01:49:10;;;;;;;23.00;14.17;;;1.50;99.90;;;;;;4980533;28;20257;-39
2023/01/26 01:51:42;;;;;;;23.33;14.00;;;1.50;99.90;;;;;;4936501;29;20273;-39
2023/01/26 01:54:20;;;;;;;24.47;14.60;;;1.50;99.90;;;;;;4978934;28;20258;-39
2023/01/26 01:56:51;;;;;;;21.83;13.50;;;1.40;99.90;;;;;;4976159;28;20183;-42
2023/01/26 01:59:20;;;;;;;22.43;13.20;;;1.40;99.90;;;;;;4998204;28;20233;-39
2023/01/26 02:01:48;;;;;;;21.97;13.10;;;1.40;99.90;;;;;;4977666;28;20203;-40
2023/01/26 02:04:14;;;;;;;22.03;13.70;;;1.30;99.90;;;;;;4974342;28;20182;-40
2023/01/26 02:06:52;;;;;;;27.47;16.07;;;1.40;99.90;;;;;;4960355;28;20306;-39
2023/01/26 02:12:20;;;;;;;24.10;14.37;;;1.40;99.90;;;;;;4991379;28;20211;-39
2023/01/26 02:14:48;;;;;;;22.53;14.20;;;1.40;99.90;;;;;;4986910;28;20279;-39
2023/01/26 02:17:14;;;;;;;24.17;14.10;;;1.40;99.90;;;;;;4993736;28;20194;-39
2023/01/26 02:20:17;;;;;;;23.90;13.63;;;1.40;99.90;;;;;;4995816;28;20245;-38
2023/01/26 02:22:50;;;;;;;21.20;13.47;;;1.40;99.90;;;;;;4994897;28;20190;-41
2023/01/26 02:25:24;;;;;;;22.70;12.83;;;1.50;99.90;;;;;;5004218;28;20193;-40
2023/01/26 02:27:50;;;;;;;20.50;12.80;;;1.50;99.90;;;;;;4991292;28;20206;-40
2023/01/26 02:30:16;;;;;;;19.50;11.93;;;1.50;99.90;;;;;;4978434;28;20176;-40
2023/01/26 02:32:43;;;;;;;21.43;12.50;;;1.50;99.90;;;;;;5011715;28;20185;-42
2023/01/26 02:35:09;;;;;;;18.87;11.63;;;1.50;99.90;;;;;;5011595;28;20265;-40
2023/01/26 02:37:35;;;;;;;18.87;11.80;;;1.40;99.90;;;;;;5008025;28;20187;-40
2023/01/26 02:40:14;;;;;;;20.23;13.03;;;1.30;99.90;;;;;;4959324;28;20184;-39
2023/01/26 02:42:40;;;;;;;22.00;12.87;;;1.40;99.90;;;;;;4997735;28;20191;-40
2023/01/26 02:45:08;;;;;;;24.47;13.53;;;1.40;99.90;;;;;;5010947;28;20187;-40
2023/01/26 02:47:34;;;;;;;18.97;12.37;;;1.40;99.90;;;;;;4990872;28;20198;-39
2023/01/26 02:50:03;;;;;;;20.77;13.23;;;1.40;99.90;;;;;;4960554;28;20271;-39
2023/01/26 02:52:32;;;;;;;24.20;14.00;;;1.40;99.90;;;;;;5003748;28;20186;-40
2023/01/26 02:55:22;;;;;;;21.57;12.07;;;1.50;99.90;;;;;;4999144;28;20268;-39
2023/01/26 02:57:49;;;;;;;21.60;12.73;;;1.50;99.90;;;;;;4979009;28;20224;-39
2023/01/26 03:00:18;;;;;;;21.97;12.60;;;1.50;99.90;;;;;;4994519;28;20210;-39
2023/01/26 03:02:45;;;;;;;20.33;12.37;;;1.50;99.90;;;;;;4994321;28;20171;-38
2023/01/26 03:05:11;;;;;;;19.87;12.57;;;1.50;99.90;;;;;;5012439;28;20270;-38
2023/01/26 03:07:37;;;;;;;23.47;14.37;;;1.50;99.90;;;;;;4977041;28;20305;-39
2023/01/26 03:10:04;;;;;;;24.63;15.30;;;1.50;99.90;;;;;;4976716;28;20252;-44
2023/01/26 03:12:30;;;;;;;19.27;12.23;;;1.50;99.90;;;;;;5010453;28;20171;-39
2023/01/26 03:17:41;;;;;;;21.97;13.70;;;1.40;99.90;;;;;;4991610;28;20210;-40
2023/01/26 03:28:22;;;;;;;23.47;14.07;;;1.40;99.90;;;;;;4977981;28;20542;-41
2023/01/26 03:30:50;;;;;;;21.93;13.90;;;1.40;99.90;;;;;;4981523;28;20201;-41
2023/01/26 03:33:17;;;;;;;21.50;13.67;;;1.40;99.90;;;;;;4977459;28;20181;-39
2023/01/26 03:35:43;;;;;;;20.63;11.87;;;1.40;99.90;;;;;;4994040;28;20222;-42
2023/01/26 03:38:09;;;;;;;23.53;14.27;;;1.40;99.90;;;;;;5007232;28;20204;-44
2023/01/26 03:57:08;;;;;;;20.47;13.30;;;1.30;99.90;;;;;;5005573;28;20265;-39
2023/01/26 03:59:36;;;;;;;24.87;14.70;;;1.30;99.90;;;;;;4993629;28;20270;-39
2023/01/26 04:10:27;;;;;;;24.60;14.77;;;1.20;99.90;;;;;;4991891;28;20206;-39
2023/01/26 04:21:32;;;;;;;21.90;13.07;;;1.20;99.90;;;;;;5009824;28;20198;-39
2023/01/26 04:24:13;;;;;;;24.00;13.80;;;1.30;99.90;;;;;;4993082;28;20191;-43
2023/01/26 04:26:40;;;;;;;23.60;13.80;;;1.30;99.90;;;;;;4967605;28;20183;-40
2023/01/26 04:29:12;;;;;;;23.37;13.43;;;1.30;99.90;;;;;;4991301;28;20698;-39
2023/01/26 04:31:40;;;;;;;23.70;13.10;;;1.30;99.90;;;;;;4958652;28;20215;-40
2023/01/26 04:34:10;;;;;;;25.03;13.37;;;1.30;99.90;;;;;;4992760;28;20180;-39
2023/01/26 04:36:37;;;;;;;22.90;12.80;;;1.30;99.90;;;;;;5011090;28;20235;-40
2023/01/26 04:39:04;;;;;;;23.30;13.33;;;1.30;99.90;;;;;;4983767;28;20179;-42
2023/01/26 04:41:31;;;;;;;21.40;12.57;;;1.30;99.90;;;;;;4990060;28;20213;-42
2023/01/26 04:44:02;;;;;;;21.77;12.40;;;1.30;99.90;;;;;;4960427;28;20183;-41
2023/01/26 04:46:29;;;;;;;19.47;12.10;;;1.30;99.90;;;;;;4961511;28;20187;-40
2023/01/26 04:48:54;;;;;;;20.10;11.50;;;1.40;99.90;;;;;;4962394;28;20203;-39
2023/01/26 04:51:21;;;;;;;22.13;12.87;;;1.40;99.90;;;;;;4962596;28;20210;-40
2023/01/26 04:53:48;;;;;;;21.03;13.93;;;1.40;99.90;;;;;;4987383;28;20184;-39
2023/01/26 04:56:29;;;;;;;23.00;12.27;;;1.30;99.90;;;;;;5004845;28;20270;-39
2023/01/26 04:59:03;;;;;;;22.10;11.67;;;1.30;99.90;;;;;;4999278;28;20179;-43
2023/01/26 05:01:30;;;;;;;23.23;13.20;;;1.20;99.90;;;;;;4996570;28;20206;-40
2023/01/26 05:04:01;;;;;;;22.40;11.60;;;1.30;99.90;;;;;;4996730;28;20187;-39
2023/01/26 05:06:29;;;;;;;23.03;11.33;;;1.30;99.90;;;;;;5012657;28;20181;-41
2023/01/26 05:08:56;;;;;;;17.23;10.50;;;1.30;99.90;;;;;;4979161;28;20216;-38
2023/01/26 05:11:23;;;;;;;16.80;10.57;;;1.10;99.90;;;;;;4979922;28;20201;-38
2023/01/26 05:14:07;;;;;;;18.43;10.13;;;1.10;99.90;;;;;;4995496;28;20234;-37
2023/01/26 05:16:56;;;;;;;16.73;9.00;;;1.10;99.90;;;;;;4974859;28;20648;-39
2023/01/26 05:19:39;;;;;;;16.93;9.57;;;1.10;99.90;;;;;;4987320;28;20178;-37
2023/01/26 05:22:20;;;;;;;18.27;10.57;;;1.10;99.90;;;;;;4996290;28;20204;-39
2023/01/26 05:25:07;;;;;;;18.23;10.50;;;1.10;99.90;;;;;;4997054;28;20249;-35
2023/01/26 05:27:40;;;;;;;19.80;11.50;;;1.10;99.90;;;;;;4993696;28;20278;-35
2023/01/26 05:30:07;;;;;;;19.00;10.20;;;1.10;99.90;;;;;;5013999;28;20182;-35
2023/01/26 05:32:35;;;;;;;18.33;10.10;;;1.00;99.90;;;;;;4997052;28;20186;-35
2023/01/26 05:35:01;;;;;;;18.17;10.73;;;1.00;99.90;;;;;;5014396;28;20179;-36
2023/01/26 05:37:29;;;;;;;16.07;9.13;;;1.00;99.90;;;;;;4997797;28;20245;-35
2023/01/26 05:39:55;;;;;;;19.63;10.40;;;1.00;99.90;;;;;;4997544;28;20207;-35
2023/01/26 05:42:22;;;;;;;18.40;11.17;;;1.00;99.90;;;;;;4997816;28;20221;-38
2023/01/26 05:44:57;;;;;;;18.03;10.50;;;1.00;99.90;;;;;;5003429;28;20236;-36
2023/01/26 05:47:23;;;;;;;19.03;10.53;;;1.00;99.90;;;;;;4997574;28;20210;-35
2023/01/26 05:49:50;;;;;;;16.70;10.13;;;1.00;99.90;;;;;;5000840;28;20179;-38
2023/01/26 05:52:21;;;;;;;18.27;10.10;;;1.10;99.90;;;;;;4982489;28;20671;-36
2023/01/26 05:54:49;;;;;;;16.07;9.70;;;1.00;99.90;;;;;;4993022;28;20266;-37
2023/01/26 05:57:16;;;;;;;14.83;8.77;;;1.10;99.90;;;;;;4993904;28;20182;-35
2023/01/26 05:59:47;;;;;;;16.93;8.90;;;1.10;99.90;;;;;;5015021;28;20251;-35
2023/01/26 06:02:13;;;;;;;16.77;9.27;;;1.10;99.90;;;;;;4997552;28;20285;-35
2023/01/26 06:04:43;;;;;;;19.50;10.27;;;1.10;99.90;;;;;;5013738;28;20171;-37
2023/01/26 06:07:09;;;;;;;13.97;8.33;;;1.00;99.90;;;;;;4996919;28;20182;-36
2023/01/26 06:09:44;;;;;;;16.40;9.17;;;1.00;99.90;;;;;;5013435;28;20166;-39
2023/01/26 06:12:22;;;;;;;15.50;8.93;;;1.10;99.90;;;;;;4996663;28;20222;-38
2023/01/26 06:14:54;;;;;;;15.30;9.00;;;1.10;99.90;;;;;;5013946;28;20202;-38
2023/01/26 06:17:20;;;;;;;17.23;9.70;;;1.10;99.90;;;;;;4980691;28;20215;-43
2023/01/26 06:19:51;;;;;;;18.00;10.03;;;1.10;99.90;;;;;;4976701;28;20187;-40
2023/01/26 06:22:17;;;;;;;15.80;9.33;;;1.20;99.90;;;;;;4975238;28;20206;-39
2023/01/26 06:24:47;;;;;;;15.70;9.43;;;1.20;99.90;;;;;;4995228;28;20240;-36
2023/01/26 06:27:14;;;;;;;19.63;10.30;;;1.20;99.90;;;;;;4995516;28;20184;-42
2023/01/26 06:29:43;;;;;;;17.13;9.73;;;1.30;99.90;;;;;;4961505;28;20174;-38
2023/01/26 06:32:13;;;;;;;15.87;9.07;;;1.30;99.90;;;;;;5021255;23;20261;-30
2023/01/26 06:34:40;;;;;;;17.77;10.10;;;1.30;99.90;;;;;;5013573;28;20293;-30
2023/01/26 06:37:06;;;;;;;14.73;9.10;;;1.30;99.90;;;;;;5012314;28;20174;-31
2023/01/26 06:39:36;;;;;;;17.43;9.70;;;1.30;99.90;;;;;;5019939;28;20183;-30
2023/01/26 06:42:02;;;;;;;15.13;9.70;;;1.30;99.90;;;;;;4986883;28;20230;-30
2023/01/26 06:44:28;;;;;;;14.83;8.10;;;1.30;99.90;;;;;;4994519;28;20175;-31
2023/01/26 06:46:54;;;;;;;13.40;7.83;;;1.30;99.90;;;;;;4983303;28;20181;-30
2023/01/26 06:49:20;;;;;;;15.10;8.53;;;1.20;99.90;;;;;;5004130;28;20211;-29
2023/01/26 06:52:01;;;;;;;13.97;7.67;;;1.10;99.90;;;;;;4993987;28;20194;-31
2023/01/26 06:54:48;;;;;;;13.77;7.93;;;1.10;99.90;;;;;;4998975;28;20186;-30
2023/01/26 06:57:52;;;;;;;14.40;7.90;;;1.10;99.90;;;;;;4998798;28;20182;-31
2023/01/26 07:00:39;;;;;;;16.03;8.13;;;1.10;99.90;;;;;;5011984;28;20204;-30
2023/01/26 07:03:30;;;;;;;13.97;8.17;;;1.10;99.90;;;;;;4996512;28;20218;-32
2023/01/26 07:05:56;;;;;;;14.27;7.60;;;1.10;99.90;;;;;;5010616;28;20186;-29
2023/01/26 07:08:22;;;;;;;14.13;8.27;;;1.00;99.90;;;;;;5010070;28;20210;-29
2023/01/26 07:10:51;;;;;;;13.87;8.10;;;1.00;99.90;;;;;;4993684;28;20206;-31
2023/01/26 07:13:17;;;;;;;13.33;7.93;;;1.00;99.90;;;;;;4994334;28;20190;-30
2023/01/26 07:15:43;;;;;;;14.33;8.23;;;1.00;99.90;;;;;;4988107;28;20187;-30
2023/01/26 07:18:09;;;;;;;15.07;8.37;;;1.00;99.90;;;;;;4992110;28;20195;-30
2023/01/26 07:20:36;;;;;;;15.03;8.70;;;1.00;99.90;;;;;;4991713;28;20189;-30
2023/01/26 07:23:02;;;;;;;16.23;9.17;;;1.00;99.90;;;;;;4979735;28;20193;-29
2023/01/26 07:25:28;;;;;;;15.57;8.50;;;1.00;99.90;;;;;;4992161;28;20191;-30
2023/01/26 07:27:58;;;;;;;11.93;7.13;;;0.90;99.90;;;;;;4993500;28;20203;-30
2023/01/26 07:30:24;;;;;;;14.97;7.97;;;0.90;99.90;;;;;;5008680;28;20186;-31
2023/01/26 07:32:50;;;;;;;14.60;8.27;;;0.90;99.90;;;;;;4996915;28;20265;-30
2023/01/26 07:35:17;;;;;;;16.90;8.50;;;0.80;99.90;;;;;;5010839;28;20273;-29
2023/01/26 07:37:42;;;;;;;15.40;9.07;;;0.80;99.90;;;;;;5012502;28;20187;-31
2023/01/26 07:40:09;;;;;;;18.33;8.53;;;0.80;99.90;;;;;;5010606;28;20260;-30
2023/01/26 07:42:34;;;;;;;16.07;8.37;;;0.80;99.90;;;;;;5009547;28;20193;-32
2023/01/26 07:45:08;;;;;;;14.97;8.80;;;0.80;99.90;;;;;;5011351;28;20184;-31
2023/01/26 07:47:34;;;;;;;14.03;8.27;;;0.80;99.90;;;;;;5010248;28;20297;-30
2023/01/26 07:50:00;;;;;;;15.63;8.07;;;0.80;99.90;;;;;;4993274;28;20244;-31
2023/01/26 07:52:26;;;;;;;16.33;8.60;;;0.80;99.90;;;;;;5009658;28;20202;-31
2023/01/26 07:54:52;;;;;;;15.60;8.27;;;0.70;99.90;;;;;;5009701;28;20183;-31
2023/01/26 07:57:17;;;;;;;13.97;8.20;;;0.70;99.90;;;;;;5010984;28;20245;-30
2023/01/26 07:59:43;;;;;;;13.00;7.53;;;0.70;99.90;;;;;;4993158;28;20281;-30
2023/01/26 08:02:09;;;;;;;15.53;8.67;;;0.70;99.90;;;;;;4992966;28;20206;-31
2023/01/26 08:04:35;;;;;;;14.07;8.07;;;0.60;99.90;;;;;;5016428;28;20230;-30
2023/01/26 08:07:01;;;;;;;16.03;8.57;;;0.60;99.90;;;;;;5013177;28;20192;-32
2023/01/26 08:09:27;;;;;;;14.37;8.63;;;0.60;99.90;;;;;;5010619;28;20256;-30
2023/01/26 08:11:56;;;;;;;15.90;8.57;;;0.60;99.90;;;;;;5009552;28;20266;-31
2023/01/26 08:14:22;;;;;;;15.73;9.07;;;0.60;99.90;;;;;;5008388;28;20187;-29
2023/01/26 08:16:48;;;;;;;15.30;8.37;;;0.60;99.90;;;;;;5007002;28;20273;-30
2023/01/26 08:19:14;;;;;;;18.43;10.07;;;0.60;99.90;;;;;;4995097;28;20246;-29
2023/01/26 08:21:39;;;;;;;16.40;8.93;;;0.70;99.90;;;;;;5015003;28;20249;-31
2023/01/26 08:24:05;;;;;;;16.27;9.00;;;0.60;99.90;;;;;;5006313;28;20189;-30
2023/01/26 08:26:31;;;;;;;14.83;9.10;;;0.60;99.90;;;;;;5006186;28;20181;-30
2023/01/26 08:28:57;;;;;;;13.57;7.83;;;0.60;99.90;;;;;;5013421;28;20353;-31
2023/01/26 08:31:24;;;;;;;15.47;8.87;;;0.60;99.90;;;;;;4996955;28;20241;-30
2023/01/26 08:33:51;;;;;;;16.37;8.43;;;0.60;99.90;;;;;;5013006;28;20182;-30
2023/01/26 08:36:18;;;;;;;16.33;8.13;;;0.60;99.90;;;;;;5013390;28;20192;-30
2023/01/26 08:38:44;;;;;;;16.83;9.00;;;0.60;99.90;;;;;;5014408;28;20188;-30
2023/01/26 08:41:10;;;;;;;14.63;8.33;;;0.60;99.90;;;;;;4996880;28;20201;-30
2023/01/26 08:43:37;;;;;;;15.10;8.57;;;0.60;99.90;;;;;;4996958;28;20650;-30
2023/01/26 08:46:03;;;;;;;15.00;8.17;;;0.70;99.90;;;;;;5014594;28;20209;-31
2023/01/26 08:48:30;;;;;;;14.43;7.67;;;0.70;99.90;;;;;;5014122;28;20222;-30
2023/01/26 08:50:58;;;;;;;12.83;7.70;;;0.70;99.90;;;;;;5013178;28;20201;-30
2023/01/26 08:53:24;;;;;;;16.80;8.40;;;0.70;99.90;;;;;;5013123;28;20192;-30
2023/01/26 08:55:50;;;;;;;15.13;8.77;;;0.70;99.90;;;;;;4996854;28;20199;-30
2023/01/26 08:58:17;;;;;;;16.47;8.97;;;0.60;99.90;;;;;;5014330;28;20273;-31
2023/01/26 09:00:43;;;;;;;16.80;9.57;;;0.70;99.90;;;;;;4996367;28;20207;-31
2023/01/26 09:03:09;;;;;;;18.90;9.30;;;0.80;99.90;;;;;;5012853;28;20187;-30
2023/01/26 09:05:36;;;;;;;17.60;9.90;;;0.70;99.90;;;;;;4996337;28;20194;-30
2023/01/26 09:08:04;;;;;;;19.83;10.93;;;0.60;99.90;;;;;;4996677;28;20214;-30
2023/01/26 09:10:30;;;;;;;24.30;11.57;;;0.60;99.90;;;;;;5000859;28;20214;-29
2023/01/26 09:12:59;;;;;;;21.10;11.17;;;0.60;99.90;;;;;;5014490;28;20182;-30
2023/01/26 09:15:26;;;;;;;20.93;11.07;;;0.50;99.90;;;;;;5012593;28;20175;-29
2023/01/26 09:17:52;;;;;;;22.50;11.47;;;0.50;99.90;;;;;;4996720;28;20224;-30
2023/01/26 09:20:19;;;;;;;20.27;10.73;;;0.50;99.90;;;;;;5004544;28;20216;-31
2023/01/26 09:22:46;;;;;;;21.00;11.03;;;0.50;99.90;;;;;;4998830;28;20686;-29
2023/01/26 09:25:12;;;;;;;22.40;12.07;;;0.50;99.90;;;;;;5012192;28;20213;-29
2023/01/26 09:27:38;;;;;;;21.93;11.50;;;0.50;99.90;;;;;;4994604;28;20216;-30
2023/01/26 09:30:07;;;;;;;23.37;11.53;;;0.50;99.90;;;;;;4994178;28;20175;-30
2023/01/26 09:32:33;;;;;;;22.47;10.93;;;0.50;99.90;;;;;;5011305;28;20214;-31
2023/01/26 09:34:59;;;;;;;21.07;10.87;;;0.40;99.90;;;;;;5000217;28;20186;-30
2023/01/26 09:37:25;;;;;;;18.50;10.33;;;0.40;99.90;;;;;;4994234;28;20237;-31
2023/01/26 09:39:54;;;;;;;17.27;10.30;;;0.50;99.90;;;;;;5010425;28;20174;-30
2023/01/26 09:42:32;;;;;;;23.87;11.50;;;0.50;99.90;;;;;;5005586;28;20205;-30
2023/01/26 09:45:13;;;;;;;17.40;9.97;;;0.50;99.90;;;;;;5032078;28;20189;-30
2023/01/26 09:48:21;;;;;;;17.67;9.47;;;0.50;99.90;;;;;;5001113;28;20291;-30
2023/01/26 09:50:47;;;;;;;18.60;9.63;;;0.50;99.90;;;;;;5005404;28;20217;-30
2023/01/26 09:53:38;;;;;;;16.10;8.67;;;0.50;99.90;;;;;;4998668;28;20170;-30
2023/01/26 09:56:04;;;;;;;16.00;8.53;;;0.50;99.90;;;;;;5008221;28;20264;-30
2023/01/26 09:58:39;;;;;;;16.13;8.33;;;0.40;99.90;;;;;;4985192;28;20186;-29
2023/01/26 10:01:27;;;;;;;14.13;8.53;;;0.40;99.90;;;;;;4977126;28;20205;-30
2023/01/26 10:04:32;;;;;;;17.33;8.67;;;0.40;99.90;;;;;;5010914;28;20193;-29
2023/01/26 10:07:03;;;;;;;17.13;8.87;;;0.40;99.90;;;;;;5010879;28;20192;-30
2023/01/26 10:09:48;;;;;;;17.07;8.93;;;0.40;99.90;;;;;;5000248;28;20194;-29
2023/01/26 10:12:23;;;;;;;19.17;9.13;;;0.40;99.90;;;;;;4982526;28;20194;-30
2023/01/26 10:14:55;;;;;;;15.33;7.90;;;0.40;99.90;;;;;;4999702;28;20176;-30
2023/01/26 10:17:32;;;;;;;17.33;8.37;;;0.40;99.90;;;;;;5022976;28;20173;-30
2023/01/26 10:20:26;;;;;;;13.27;7.90;;;0.40;99.90;;;;;;5012563;28;20197;-29
2023/01/26 10:22:57;;;;;;;15.10;8.63;;;0.40;99.90;;;;;;4995946;28;20253;-30
2023/01/26 10:25:51;;;;;;;14.13;7.60;;;0.40;99.90;;;;;;4994758;28;20178;-29
2023/01/26 10:28:34;;;;;;;14.07;8.93;;;0.40;99.90;;;;;;5008332;28;20221;-30
2023/01/26 10:31:04;;;;;;;16.47;9.10;;;0.40;99.90;;;;;;4996156;28;20205;-30
2023/01/26 10:33:35;;;;;;;13.50;7.87;;;0.40;99.90;;;;;;5000593;28;20177;-29
2023/01/26 10:36:06;;;;;;;15.10;8.20;;;0.40;99.90;;;;;;4994399;28;20178;-30
2023/01/26 10:38:32;;;;;;;16.70;7.60;;;0.50;99.90;;;;;;4995723;28;20178;-30
2023/01/26 10:41:03;;;;;;;15.33;7.90;;;0.50;99.90;;;;;;5010708;28;20209;-31
2023/01/26 10:43:40;;;;;;;14.07;8.00;;;0.50;99.90;;;;;;4998599;28;20180;-30
2023/01/26 10:46:23;;;;;;;12.80;7.33;;;0.40;99.90;;;;;;5031991;28;20195;-31
2023/01/26 10:48:52;;;;;;;10.83;6.77;;;0.50;99.90;;;;;;4997454;28;20251;-29
2023/01/26 10:51:26;;;;;;;13.83;7.87;;;0.50;99.90;;;;;;5031813;28;20225;-31
2023/01/26 10:54:22;;;;;;;13.00;7.20;;;0.60;99.90;;;;;;5003617;28;20178;-30
2023/01/26 10:56:52;;;;;;;11.40;6.70;;;0.70;99.90;;;;;;4988858;28;20187;-29
2023/01/26 10:59:26;;;;;;;11.50;7.10;;;0.70;99.90;;;;;;5010411;28;20191;-30
2023/01/26 11:02:01;;;;;;;13.13;6.83;;;0.70;99.90;;;;;;5022408;28;20202;-30
2023/01/26 11:05:00;;;;;;;12.40;6.57;;;0.60;99.90;;;;;;5108584;27;20510;-31
2023/01/26 11:07:30;;;;;;;11.50;6.67;;;0.60;99.90;;;;;;5108664;28;20217;-31
2023/01/26 11:10:14;;;;;;;11.87;6.80;;;0.50;99.90;;;;;;5107229;28;20239;-33
2023/01/26 11:12:40;;;;;;;12.90;7.30;;;0.50;99.90;;;;;;5108824;28;20229;-30
2023/01/26 11:15:17;;;;;;;9.93;6.73;;;0.60;99.90;;;;;;5108643;28;20202;-30
2023/01/26 11:17:56;;;;;;;13.37;6.87;;;0.50;99.90;;;;;;5107425;28;20227;-31
2023/01/26 11:20:43;;;;;;;13.03;7.60;;;0.50;99.90;;;;;;5098287;28;20174;-31
2023/01/26 11:23:46;;;;;;;11.03;6.43;;;0.40;99.90;;;;;;5105291;28;20206;-31
2023/01/26 11:26:28;;;;;;;13.47;7.43;;;0.40;99.90;;;;;;5103781;28;20178;-31
2023/01/26 11:29:16;;;;;;;12.73;7.17;;;0.30;99.90;;;;;;5106740;28;20205;-32
2023/01/26 11:32:12;;;;;;;11.47;6.60;;;0.40;99.90;;;;;;5080086;28;20211;-30
2023/01/26 11:34:44;;;;;;;11.60;7.40;;;0.40;99.90;;;;;;5101062;28;20185;-30
2023/01/26 11:37:13;;;;;;;13.30;8.33;;;0.40;99.90;;;;;;5087716;28;20179;-31
2023/01/26 11:39:49;;;;;;;10.83;6.50;;;0.40;99.90;;;;;;5096341;28;20182;-31
2023/01/26 11:42:21;;;;;;;14.60;7.73;;;0.40;99.90;;;;;;5095951;28;20218;-30
2023/01/26 11:45:03;;;;;;;10.37;6.47;;;0.40;99.90;;;;;;5097077;28;20201;-30
2023/01/26 11:47:52;;;;;;;11.70;6.60;;;0.30;99.90;;;;;;5109729;28;20725;-30
2023/01/26 11:50:31;;;;;;;10.07;6.37;;;0.30;99.90;;;;;;5095593;27;20203;-30
2023/01/26 11:53:34;;;;;;;11.37;6.37;;;0.30;99.90;;;;;;5091741;28;20183;-30
2023/01/26 11:56:24;;;;;;;11.80;6.57;;;0.40;99.90;;;;;;5099920;28;20228;-31
2023/01/26 11:58:59;;;;;;;12.27;6.47;;;0.30;99.90;;;;;;5096921;28;20248;-30
2023/01/26 12:01:34;;;;;;;13.47;6.80;;;0.40;99.90;;;;;;5086014;28;20232;-31
2023/01/26 12:04:00;;;;;;;12.70;8.00;;;0.40;99.90;;;;;;5088802;28;20316;-30
2023/01/26 12:06:31;;;;;;;13.27;7.37;;;0.40;99.90;;;;;;5086943;28;20259;-30
2023/01/26 12:09:17;;;;;;;13.70;7.50;;;0.30;99.90;;;;;;5068575;28;20175;-31
2023/01/26 12:11:59;;;;;;;14.23;7.50;;;0.30;99.90;;;;;;5095157;28;20206;-30
2023/01/26 12:15:18;;;;;;;12.60;7.40;;;0.30;99.90;;;;;;5083062;28;20191;-30
2023/01/26 12:18:35;;;;;;;13.23;7.73;;;0.30;99.90;;;;;;5041853;28;20187;-30
2023/01/26 12:21:09;;;;;;;14.37;7.70;;;0.20;99.90;;;;;;5085913;28;20214;-30
2023/01/26 12:23:49;;;;;;;14.60;7.63;;;0.10;99.90;;;;;;5080764;28;20219;-30
2023/01/26 12:26:20;;;;;;;14.23;7.83;;;0.10;99.90;;;;;;5085003;28;20182;-30
2023/01/26 12:29:07;;;;;;;13.07;7.20;;;0.00;99.90;;;;;;5085604;28;20183;-30
2023/01/26 12:31:51;;;;;;;15.20;7.87;;;0.00;99.90;;;;;;5064214;28;20186;-30
2023/01/26 12:34:26;;;;;;;14.37;7.50;;;0.00;99.90;;;;;;5083060;28;20181;-31
2023/01/26 12:37:22;;;;;;;14.20;8.13;;;0.00;99.90;;;;;;5082359;28;20178;-31
2023/01/26 12:40:14;;;;;;;15.70;8.33;;;0.00;99.90;;;;;;5083762;28;20228;-30
2023/01/26 12:42:52;;;;;;;15.77;7.77;;;0.00;99.90;;;;;;5076701;28;20212;-30
2023/01/26 12:45:26;;;;;;;19.43;8.77;;;0.00;99.90;;;;;;5082190;28;20245;-31
2023/01/26 12:48:06;;;;;;;17.77;9.47;;;0.00;99.90;;;;;;5083484;28;20258;-31
2023/01/26 12:50:39;;;;;;;19.27;8.50;;;0.10;99.90;;;;;;5085336;28;20706;-31
2023/01/26 12:53:31;;;;;;;13.73;8.13;;;0.10;99.90;;;;;;5083010;28;20265;-30
2023/01/26 12:56:26;;;;;;;15.27;8.57;;;0.00;99.90;;;;;;5082451;28;20233;-30
2023/01/26 12:58:54;;;;;;;16.97;8.37;;;0.00;99.90;;;;;;5065347;28;20202;-29
2023/01/26 13:01:23;;;;;;;18.17;9.80;;;0.00;99.90;;;;;;5080129;28;20198;-30
2023/01/26 13:03:58;;;;;;;16.23;9.07;;;-0.10;99.90;;;;;;5083264;28;20293;-31
2023/01/26 13:06:26;;;;;;;17.63;8.63;;;0.00;99.90;;;;;;5077916;28;20187;-30
2023/01/26 13:09:03;;;;;;;15.53;8.67;;;0.00;99.90;;;;;;5082481;28;20248;-31
2023/01/26 13:11:38;;;;;;;15.00;8.63;;;0.00;99.90;;;;;;5081177;28;20195;-31
2023/01/26 13:14:30;;;;;;;13.17;7.57;;;0.00;99.90;;;;;;5084513;28;20186;-30
2023/01/26 13:17:17;;;;;;;12.30;7.37;;;0.10;99.90;;;;;;5076691;28;20205;-30
2023/01/26 13:19:43;;;;;;;12.17;7.17;;;0.20;99.90;;;;;;5082552;28;20190;-30
2023/01/26 13:22:18;;;;;;;14.00;8.00;;;0.10;99.90;;;;;;5083293;28;20191;-34
2023/01/26 13:24:47;;;;;;;12.80;7.57;;;0.10;99.90;;;;;;5083541;28;20196;-30
2023/01/26 13:27:32;;;;;;;12.43;6.87;;;0.10;99.90;;;;;;5089835;28;20198;-31
2023/01/26 13:29:58;;;;;;;13.10;7.40;;;0.10;99.90;;;;;;5084473;28;20174;-30
2023/01/26 13:32:24;;;;;;;14.27;7.40;;;0.10;99.90;;;;;;5091152;28;20302;-31
2023/01/26 13:34:58;;;;;;;14.30;7.90;;;0.10;99.90;;;;;;5090776;28;20308;-31
2023/01/26 13:37:31;;;;;;;13.57;7.50;;;0.20;99.90;;;;;;5094896;28;20315;-31
2023/01/26 13:40:13;;;;;;;14.23;7.60;;;0.20;99.90;;;;;;5092826;28;20171;-30
2023/01/26 13:42:53;;;;;;;14.97;8.10;;;0.20;99.90;;;;;;5086882;28;20209;-30
2023/01/26 13:45:25;;;;;;;12.30;7.60;;;0.30;99.90;;;;;;5087824;28;20231;-31
2023/01/26 13:47:53;;;;;;;13.00;7.40;;;0.40;99.90;;;;;;5092104;28;20183;-31
2023/01/26 13:50:29;;;;;;;13.13;8.00;;;0.40;99.90;;;;;;5072563;28;20179;-31
2023/01/26 13:52:55;;;;;;;12.77;7.10;;;0.40;99.90;;;;;;5085205;28;20225;-31
2023/01/26 13:55:24;;;;;;;16.10;8.00;;;0.40;99.90;;;;;;5087319;28;20184;-31